createdAt,value
2023-03-03T00:00:13.008Z,99323.03
2023-03-03T00:02:40.591Z,99321.22
2023-03-03T00:05:07.909Z,99313.38
2023-03-03T00:07:35.068Z,99307.44
2023-03-03T00:10:02.535Z,99310.13
2023-03-03T00:12:30.233Z,99305.78
2023-03-03T00:14:57.653Z,99308.44
2023-03-03T00:17:26.300Z,99307.47
2023-03-03T00:19:53.679Z,99299.72
2023-03-03T00:22:30.883Z,99296.28
2023-03-03T00:25:02.416Z,99298.94
2023-03-03T00:27:30.622Z,99300.63
2023-03-03T00:29:58.329Z,99297.16
2023-03-03T00:32:27.471Z,99297.94
2023-03-03T00:34:55.856Z,99301.38
2023-03-03T00:37:33.952Z,99300.53
2023-03-03T00:40:13.603Z,99302.13
2023-03-03T00:42:40.763Z,99295.31
2023-03-03T00:45:20.559Z,99292.66
2023-03-03T00:47:47.858Z,99289.28
2023-03-03T00:50:35.650Z,99286.75
2023-03-03T00:53:04.420Z,99288.31
2023-03-03T00:55:32.529Z,99290.16
2023-03-03T00:57:59.861Z,99285.66
2023-03-03T01:00:28.053Z,99284.78
2023-03-03T01:02:55.667Z,99284.78
2023-03-03T01:05:23.891Z,99283.06
2023-03-03T01:07:51.112Z,99285.63
2023-03-03T01:10:18.653Z,99282.38
2023-03-03T01:12:45.857Z,99276.66
2023-03-03T01:15:13.207Z,99275.00
2023-03-03T01:17:41.649Z,99263.91
2023-03-03T01:20:11.214Z,99263.91
2023-03-03T01:22:38.426Z,99262.19
2023-03-03T01:25:05.940Z,99263.66
2023-03-03T01:27:34.574Z,99269.72
2023-03-03T01:30:01.995Z,99260.41
2023-03-03T01:32:30.044Z,99261.25
2023-03-03T01:34:57.403Z,99261.13
2023-03-03T01:37:24.580Z,99251.88
2023-03-03T01:39:53.596Z,99253.63
2023-03-03T01:42:21.017Z,99245.72
2023-03-03T01:44:48.376Z,99251.09
2023-03-03T01:47:22.571Z,99246.87
2023-03-03T01:49:50.318Z,99244.88
2023-03-03T01:52:21.369Z,99252.44
2023-03-03T01:54:50.937Z,99245.72
2023-03-03T01:57:19.737Z,99242.38
2023-03-03T01:59:47.848Z,99240.72
2023-03-03T02:02:15.088Z,99238.22
2023-03-03T02:04:42.537Z,99240.78
2023-03-03T02:07:11.692Z,99244.34
2023-03-03T02:09:46.931Z,99238.22
2023-03-03T02:12:15.357Z,99243.50
2023-03-03T02:14:42.532Z,99244.47
2023-03-03T02:17:09.699Z,99232.28
2023-03-03T02:19:52.703Z,99233.19
2023-03-03T02:22:21.971Z,99236.63
2023-03-03T02:24:53.753Z,99231.50
2023-03-03T02:27:21.138Z,99225.47
2023-03-03T02:29:48.458Z,99228.94
2023-03-03T02:32:15.936Z,99230.63
2023-03-03T02:34:46.927Z,99230.75
2023-03-03T02:37:14.185Z,99228.16
2023-03-03T02:39:41.640Z,99229.91
2023-03-03T02:42:09.051Z,99228.16
2023-03-03T02:44:36.741Z,99232.53
2023-03-03T02:47:04.218Z,99217.78
2023-03-03T02:49:32.304Z,99219.50
2023-03-03T02:51:59.900Z,99223.84
2023-03-03T02:54:28.223Z,99222.09
2023-03-03T02:56:55.387Z,99216.91
2023-03-03T02:59:22.573Z,99215.19
2023-03-03T03:01:50.222Z,99211.72
2023-03-03T03:04:18.882Z,99209.09
2023-03-03T03:06:46.596Z,99210.84
2023-03-03T03:09:15.056Z,99203.91
2023-03-03T03:11:42.827Z,99209.09
2023-03-03T03:14:10.885Z,99204.75
2023-03-03T03:16:38.574Z,99205.63
2023-03-03T03:19:06.016Z,99203.03
2023-03-03T03:21:33.778Z,99202.16
2023-03-03T03:24:02.179Z,99196.94
2023-03-03T03:26:31.385Z,99194.34
2023-03-03T03:28:59.274Z,99191.72
2023-03-03T03:31:26.843Z,99187.38
2023-03-03T03:33:54.110Z,99184.78
2023-03-03T03:36:24.665Z,99186.53
2023-03-03T03:38:53.232Z,99177.81
2023-03-03T03:41:20.472Z,99177.81
2023-03-03T03:43:47.703Z,99178.66
2023-03-03T03:46:15.377Z,99179.56
2023-03-03T03:48:42.579Z,99177.78
2023-03-03T03:51:11.332Z,99177.84
2023-03-03T03:53:39.409Z,99175.25
2023-03-03T03:56:06.759Z,99184.78
2023-03-03T03:58:34.123Z,99177.81
2023-03-03T04:01:05.267Z,99169.13
2023-03-03T04:03:33.427Z,99169.09
2023-03-03T04:06:01.180Z,99172.56
2023-03-03T04:08:28.331Z,99168.19
2023-03-03T04:10:56.230Z,99172.53
2023-03-03T04:13:24.446Z,99167.38
2023-03-03T04:15:51.783Z,99163.03
2023-03-03T04:18:19.640Z,99159.53
2023-03-03T04:20:47.044Z,99169.06
2023-03-03T04:23:14.828Z,99160.34
2023-03-03T04:25:42.522Z,99162.97
2023-03-03T04:28:12.826Z,99165.59
2023-03-03T04:30:40.277Z,99164.72
2023-03-03T04:33:07.811Z,99162.97
2023-03-03T04:35:36.815Z,99158.66
2023-03-03T04:38:05.700Z,99157.75
2023-03-03T04:40:33.942Z,99156.09
2023-03-03T04:43:01.591Z,99160.34
2023-03-03T04:45:28.935Z,99160.34
2023-03-03T04:47:56.512Z,99162.09
2023-03-03T04:50:23.720Z,99155.16
2023-03-03T04:52:51.006Z,99157.75
2023-03-03T04:55:18.703Z,99153.41
2023-03-03T04:57:46.632Z,99162.97
2023-03-03T05:00:14.019Z,99162.09
2023-03-03T05:02:41.665Z,99158.59
2023-03-03T05:05:10.632Z,99161.22
2023-03-03T05:07:37.792Z,99161.25
2023-03-03T05:10:05.752Z,99162.97
2023-03-03T05:12:32.978Z,99161.19
2023-03-03T05:15:00.097Z,99165.53
2023-03-03T05:17:27.533Z,99160.31
2023-03-03T05:19:57.306Z,99158.53
2023-03-03T05:22:24.989Z,99165.47
2023-03-03T05:24:52.532Z,99167.16
2023-03-03T05:27:19.975Z,99166.44
2023-03-03T05:29:47.188Z,99167.25
2023-03-03T05:32:14.712Z,99168.97
2023-03-03T05:34:42.024Z,99174.19
2023-03-03T05:37:10.613Z,99169.78
2023-03-03T05:39:38.092Z,99169.81
2023-03-03T05:42:05.290Z,99170.75
2023-03-03T05:44:32.438Z,99169.84
2023-03-03T05:46:59.880Z,99172.53
2023-03-03T05:49:27.665Z,99172.50
2023-03-03T05:51:54.823Z,99176.81
2023-03-03T05:54:22.274Z,99175.88
2023-03-03T05:56:49.977Z,99174.12
2023-03-03T05:59:17.620Z,99183.66
2023-03-03T06:01:45.268Z,99185.41
2023-03-03T06:04:12.765Z,99185.47
2023-03-03T06:06:40.249Z,99183.00
2023-03-03T06:09:07.606Z,99189.88
2023-03-03T06:11:35.049Z,99188.13
2023-03-03T06:14:02.190Z,99184.56
2023-03-03T06:16:29.364Z,99195.81
2023-03-03T06:18:56.851Z,99189.78
2023-03-03T06:21:24.012Z,99191.53
2023-03-03T06:23:51.228Z,99192.34
2023-03-03T06:26:18.733Z,99191.41
2023-03-03T06:28:45.881Z,99200.13
2023-03-03T06:31:13.149Z,99203.66
2023-03-03T06:33:42.229Z,99198.47
2023-03-03T06:36:09.613Z,99205.44
2023-03-03T06:38:36.779Z,99205.38
2023-03-03T06:41:07.355Z,99207.28
2023-03-03T06:43:35.188Z,99218.63
2023-03-03T06:46:02.690Z,99211.69
2023-03-03T06:48:30.670Z,99210.84
2023-03-03T06:50:58.625Z,99205.66
2023-03-03T06:53:25.817Z,99196.03
2023-03-03T06:55:53.239Z,99196.09
2023-03-03T06:58:21.050Z,99207.31
2023-03-03T07:00:57.822Z,99214.06
2023-03-03T07:03:43.475Z,99219.88
2023-03-03T07:06:17.313Z,99220.16
2023-03-03T07:08:44.737Z,99217.69
2023-03-03T07:11:12.981Z,99220.38
2023-03-03T07:13:40.786Z,99216.75
2023-03-03T07:16:10.689Z,99231.50
2023-03-03T07:18:41.061Z,99227.31
2023-03-03T07:21:17.601Z,99236.00
2023-03-03T07:23:45.428Z,99236.88
2023-03-03T07:26:13.846Z,99236.03
2023-03-03T07:28:41.743Z,99240.38
2023-03-03T07:31:28.767Z,99242.12
2023-03-03T07:33:56.278Z,99240.38
2023-03-03T07:36:27.796Z,99239.47
2023-03-03T07:38:55.664Z,99242.09
2023-03-03T07:41:26.302Z,99242.97
2023-03-03T07:43:57.391Z,99239.50
2023-03-03T07:46:27.776Z,99241.25
2023-03-03T07:48:55.439Z,99237.72
2023-03-03T07:51:25.590Z,99239.44
2023-03-03T07:53:54.150Z,99240.31
2023-03-03T07:56:25.223Z,99248.03
2023-03-03T07:58:53.210Z,99252.44
2023-03-03T08:01:40.346Z,99254.06
2023-03-03T08:04:16.755Z,99251.44
2023-03-03T08:06:53.211Z,99252.31
2023-03-03T08:09:20.610Z,99249.66
2023-03-03T08:12:06.049Z,99254.09
2023-03-03T08:14:34.515Z,99251.50
2023-03-03T08:17:02.105Z,99247.19
2023-03-03T08:19:30.266Z,99254.09
2023-03-03T08:22:09.768Z,99257.53
2023-03-03T08:24:38.503Z,99252.38
2023-03-03T08:27:06.063Z,99248.78
2023-03-03T08:29:33.535Z,99238.56
2023-03-03T08:32:00.770Z,99255.03
2023-03-03T08:34:28.420Z,99248.03
2023-03-03T08:36:58.181Z,99249.91
2023-03-03T08:39:25.332Z,99246.41
2023-03-03T08:41:52.841Z,99245.59
2023-03-03T08:44:20.711Z,99249.06
2023-03-03T08:46:47.952Z,99238.59
2023-03-03T08:49:15.441Z,99250.81
2023-03-03T08:51:42.580Z,99249.03
2023-03-03T08:54:09.718Z,99255.09
2023-03-03T08:56:37.204Z,99247.34
2023-03-03T08:59:04.444Z,99256.91
2023-03-03T09:01:32.064Z,99252.53
2023-03-03T09:03:59.625Z,99249.94
2023-03-03T09:06:26.884Z,99249.91
2023-03-03T09:08:54.961Z,99249.91
2023-03-03T09:11:26.235Z,99249.75
2023-03-03T09:13:59.394Z,99250.75
2023-03-03T09:16:27.375Z,99249.88
2023-03-03T09:18:54.605Z,99247.16
2023-03-03T09:21:23.390Z,99242.12
2023-03-03T09:23:50.796Z,99242.94
2023-03-03T09:26:47.390Z,99243.81
2023-03-03T09:29:14.784Z,99242.06
2023-03-03T09:31:51.972Z,99248.09
2023-03-03T09:34:23.532Z,99247.97
2023-03-03T09:36:53.544Z,99245.59
2023-03-03T09:39:25.327Z,99256.00
2023-03-03T09:42:01.654Z,99255.16
2023-03-03T09:44:42.850Z,99254.19
2023-03-03T09:47:09.952Z,99256.00
2023-03-03T09:49:58.856Z,99254.31
2023-03-03T09:52:30.717Z,99250.81
2023-03-03T09:55:04.205Z,99251.47
2023-03-03T09:57:43.417Z,99252.53
2023-03-03T10:00:19.957Z,99242.03
2023-03-03T10:02:51.917Z,99241.25
2023-03-03T10:05:39.170Z,99245.59
2023-03-03T10:08:19.059Z,99238.53
2023-03-03T10:10:51.426Z,99242.69
2023-03-03T10:13:31.226Z,99249.84
2023-03-03T10:16:13.754Z,99243.72
2023-03-03T10:18:53.042Z,99246.19
2023-03-03T10:21:23.792Z,99242.12
2023-03-03T10:23:57.660Z,99231.66
2023-03-03T10:26:49.093Z,99232.47
2023-03-03T10:29:22.723Z,99226.44
2023-03-03T10:31:59.177Z,99229.91
2023-03-03T10:34:29.436Z,99229.94
2023-03-03T10:37:05.386Z,99236.88
2023-03-03T10:39:47.820Z,99227.28
2023-03-03T10:42:17.183Z,99234.28
2023-03-03T10:45:03.520Z,99219.34
2023-03-03T10:47:33.955Z,99209.25
2023-03-03T10:50:20.062Z,99214.75
2023-03-03T10:52:47.706Z,99209.91
2023-03-03T10:55:38.300Z,99211.38
2023-03-03T10:58:12.220Z,99207.59
2023-03-03T11:00:46.750Z,99202.22
2023-03-03T11:03:39.553Z,99203.91
2023-03-03T11:06:19.121Z,99205.63
2023-03-03T11:08:49.683Z,99206.47
2023-03-03T11:11:17.087Z,99196.00
2023-03-03T11:13:48.149Z,99200.44
2023-03-03T11:16:15.343Z,99196.78
2023-03-03T11:18:55.079Z,99192.25
2023-03-03T11:21:32.731Z,99189.03
2023-03-03T11:24:12.283Z,99186.97
2023-03-03T11:26:39.474Z,99177.03
2023-03-03T11:29:13.295Z,99175.25
2023-03-03T11:31:43.245Z,99168.94
2023-03-03T11:34:29.184Z,99173.88
2023-03-03T11:37:16.572Z,99153.28
2023-03-03T11:39:43.991Z,99154.50
2023-03-03T11:42:28.567Z,99152.41
2023-03-03T11:44:57.123Z,99155.97
2023-03-03T11:47:26.855Z,99156.47
2023-03-03T11:49:56.704Z,99151.62
2023-03-03T11:52:43.135Z,99146.28
2023-03-03T11:55:23.653Z,99148.41
2023-03-03T11:57:54.153Z,99150.41
2023-03-03T12:00:21.405Z,99143.72
2023-03-03T12:02:55.769Z,99147.97
2023-03-03T12:05:46.372Z,99140.50
2023-03-03T12:08:17.729Z,99141.34
2023-03-03T12:10:45.146Z,99141.88
2023-03-03T12:13:31.336Z,99136.19
2023-03-03T12:16:11.498Z,99135.44
2023-03-03T12:19:02.144Z,99129.47
2023-03-03T12:21:29.859Z,99134.16
2023-03-03T12:24:03.030Z,99123.31
2023-03-03T12:26:37.398Z,99123.16
2023-03-03T12:29:04.892Z,99130.47
2023-03-03T12:31:35.543Z,99119.00
2023-03-03T12:34:05.411Z,99114.78
2023-03-03T12:36:35.859Z,99124.87
2023-03-03T12:39:25.362Z,99102.94
2023-03-03T12:42:04.963Z,99110.50
2023-03-03T12:44:37.521Z,99106.00
2023-03-03T12:47:08.024Z,99105.38
2023-03-03T12:49:44.101Z,99102.16
2023-03-03T12:52:36.229Z,99110.28
2023-03-03T12:55:10.390Z,99106.12
2023-03-03T12:57:56.638Z,99110.41
2023-03-03T13:00:42.657Z,99107.53
2023-03-03T13:03:10.441Z,99106.03
2023-03-03T13:05:50.183Z,99108.09
2023-03-03T13:08:20.403Z,99093.28
2023-03-03T13:10:56.876Z,99098.06
2023-03-03T13:13:27.032Z,99098.25
2023-03-03T13:15:56.066Z,99094.63
2023-03-03T13:18:23.663Z,99093.13
2023-03-03T13:20:56.084Z,99081.28
2023-03-03T13:23:26.590Z,99085.34
2023-03-03T13:26:05.102Z,99090.75
2023-03-03T13:28:43.327Z,99080.94
2023-03-03T13:31:13.755Z,99087.97
2023-03-03T13:33:40.954Z,99081.59
2023-03-03T13:36:11.782Z,99085.06
2023-03-03T13:38:50.158Z,99089.00
2023-03-03T13:41:36.315Z,99088.09
2023-03-03T13:44:09.577Z,99087.16
2023-03-03T13:46:45.317Z,99079.97
2023-03-03T13:49:18.988Z,99077.03
2023-03-03T13:51:58.602Z,99074.47
2023-03-03T13:54:44.139Z,99062.97
2023-03-03T13:57:11.300Z,99060.66
2023-03-03T13:59:57.457Z,99058.78
2023-03-03T14:02:46.139Z,99055.28
2023-03-03T14:05:15.751Z,99054.44
2023-03-03T14:07:45.474Z,99060.69
2023-03-03T14:10:21.849Z,99062.34
2023-03-03T14:13:05.631Z,99051.53
2023-03-03T14:15:36.982Z,99056.00
2023-03-03T14:18:23.015Z,99053.91
2023-03-03T14:20:51.689Z,99041.03
2023-03-03T14:23:21.729Z,99049.50
2023-03-03T14:25:58.068Z,99045.69
2023-03-03T14:28:26.762Z,99037.34
2023-03-03T14:30:56.732Z,99034.19
2023-03-03T14:33:30.265Z,99041.88
2023-03-03T14:36:00.296Z,99037.31
2023-03-03T14:38:34.626Z,99038.03
2023-03-03T14:41:22.175Z,99037.25
2023-03-03T14:44:00.663Z,99029.72
2023-03-03T14:46:31.474Z,99021.88
2023-03-03T14:49:17.767Z,99028.69
2023-03-03T14:51:48.829Z,99023.75
2023-03-03T14:54:21.744Z,99028.28
2023-03-03T14:56:59.483Z,99029.38
2023-03-03T14:59:28.422Z,99031.16
2023-03-03T15:02:19.937Z,99029.00
2023-03-03T15:04:48.879Z,99032.37
2023-03-03T15:07:25.947Z,99032.78
2023-03-03T15:09:53.801Z,99035.03
2023-03-03T15:12:22.058Z,99026.37
2023-03-03T15:14:54.328Z,99030.47
2023-03-03T15:17:27.440Z,99031.66
2023-03-03T15:20:15.273Z,99037.16
2023-03-03T15:22:50.089Z,99036.28
2023-03-03T15:25:27.610Z,99037.03
2023-03-03T15:28:32.441Z,99039.63
2023-03-03T15:31:13.813Z,99039.72
2023-03-03T15:33:45.510Z,99039.94
2023-03-03T15:36:40.429Z,99050.56
2023-03-03T15:39:17.635Z,99048.47
2023-03-03T15:42:09.200Z,99052.16
2023-03-03T15:44:46.839Z,99054.50
2023-03-03T15:47:24.474Z,99047.00
2023-03-03T15:50:10.934Z,99049.91
2023-03-03T15:52:38.350Z,99052.12
2023-03-03T15:55:16.453Z,99047.50
2023-03-03T15:57:55.573Z,99049.59
2023-03-03T16:00:30.261Z,99056.31
2023-03-03T16:02:59.238Z,99056.50
2023-03-03T16:05:31.953Z,99058.59
2023-03-03T16:07:59.650Z,99053.88
2023-03-03T16:10:33.091Z,99056.59
2023-03-03T16:13:16.063Z,99058.25
2023-03-03T16:15:43.661Z,99069.16
2023-03-03T16:18:11.074Z,99071.69
2023-03-03T16:20:41.105Z,99075.56
2023-03-03T16:23:11.433Z,99066.53
2023-03-03T16:25:54.855Z,99087.72
2023-03-03T16:28:22.303Z,99077.13
2023-03-03T16:30:52.236Z,99084.19
2023-03-03T16:33:19.844Z,99088.47
2023-03-03T16:35:53.231Z,99095.00
2023-03-03T16:38:23.405Z,99092.22
2023-03-03T16:40:54.714Z,99093.41
2023-03-03T16:43:43.878Z,99100.22
2023-03-03T16:46:30.187Z,99094.25
2023-03-03T16:48:57.826Z,99106.91
2023-03-03T16:51:28.259Z,99097.06
2023-03-03T16:54:10.128Z,99101.59
2023-03-03T16:56:39.455Z,99107.78
2023-03-03T16:59:07.066Z,99107.88
2023-03-03T17:01:41.576Z,99111.41
2023-03-03T17:04:17.598Z,99112.88
2023-03-03T17:06:55.447Z,99124.41
2023-03-03T17:09:39.655Z,99118.72
2023-03-03T17:12:27.566Z,99119.19
2023-03-03T17:14:56.741Z,99116.78
2023-03-03T17:17:24.171Z,99123.16
2023-03-03T17:19:52.484Z,99114.44
2023-03-03T17:22:24.413Z,99121.41
2023-03-03T17:25:00.810Z,99128.47
2023-03-03T17:27:33.636Z,99121.59
2023-03-03T17:30:03.979Z,99116.34
2023-03-03T17:32:42.585Z,99118.06
2023-03-03T17:35:21.473Z,99119.75
2023-03-03T17:37:49.838Z,99119.06
2023-03-03T17:40:22.716Z,99116.41
2023-03-03T17:43:09.267Z,99118.94
2023-03-03T17:45:38.118Z,99119.91
2023-03-03T17:48:29.337Z,99115.56
2023-03-03T17:50:59.497Z,99121.88
2023-03-03T17:53:27.146Z,99116.63
2023-03-03T17:56:14.306Z,99121.94
2023-03-03T17:59:01.016Z,99111.66
2023-03-03T18:01:46.936Z,99122.03
2023-03-03T18:04:34.666Z,99122.00
2023-03-03T18:07:08.244Z,99131.56
2023-03-03T18:09:45.395Z,99132.56
2023-03-03T18:12:42.413Z,99138.63
2023-03-03T18:15:15.506Z,99136.91
2023-03-03T18:17:50.932Z,99139.53
2023-03-03T18:20:36.114Z,99143.84
2023-03-03T18:23:34.227Z,99137.81
2023-03-03T18:26:03.665Z,99137.84
2023-03-03T18:28:40.105Z,99141.28
2023-03-03T18:31:36.438Z,99140.37
2023-03-03T18:34:28.912Z,99136.09
2023-03-03T18:36:58.616Z,99137.00
2023-03-03T18:39:47.601Z,99137.84
2023-03-03T18:42:16.799Z,99137.00
2023-03-03T18:44:45.709Z,99141.34
2023-03-03T18:47:17.669Z,99139.59
2023-03-03T18:50:21.874Z,99147.44
2023-03-03T18:53:06.086Z,99140.50
2023-03-03T18:55:45.566Z,99143.97
2023-03-03T18:58:15.692Z,99143.06
2023-03-03T19:00:51.387Z,99137.03
2023-03-03T19:03:45.976Z,99135.28
2023-03-03T19:06:31.318Z,99139.63
2023-03-03T19:09:00.411Z,99143.91
2023-03-03T19:11:48.164Z,99145.72
2023-03-03T19:14:20.655Z,99146.50
2023-03-03T19:16:50.584Z,99151.72
2023-03-03T19:19:19.464Z,99151.69
2023-03-03T19:22:13.328Z,99150.62
2023-03-03T19:24:42.524Z,99154.16
2023-03-03T19:27:17.098Z,99154.25
2023-03-03T19:29:46.047Z,99156.84
2023-03-03T19:32:32.831Z,99158.62
2023-03-03T19:35:01.350Z,99158.62
2023-03-03T19:37:32.031Z,99162.06
2023-03-03T19:40:18.240Z,99157.69
2023-03-03T19:42:49.406Z,99157.66
2023-03-03T19:45:33.119Z,99158.38
2023-03-03T19:48:12.648Z,99162.66
2023-03-03T19:51:16.852Z,99161.00
2023-03-03T19:53:52.452Z,99162.37
2023-03-03T19:56:27.147Z,99163.53
2023-03-03T19:59:02.641Z,99166.28
2023-03-03T20:01:54.429Z,99167.75
2023-03-03T20:04:47.757Z,99170.50
2023-03-03T20:07:24.560Z,99165.22
2023-03-03T20:10:11.937Z,99161.88
2023-03-03T20:12:47.806Z,99167.94
2023-03-03T20:15:20.313Z,99174.06
2023-03-03T20:17:55.160Z,99173.09
2023-03-03T20:20:30.201Z,99167.91
2023-03-03T20:23:11.689Z,99170.47
2023-03-03T20:25:45.995Z,99177.44
2023-03-03T20:28:34.033Z,99176.00
2023-03-03T20:31:06.117Z,99176.41
2023-03-03T20:33:54.849Z,99174.62
2023-03-03T20:36:33.815Z,99180.72
2023-03-03T20:39:04.996Z,99180.66
2023-03-03T20:41:37.702Z,99182.25
2023-03-03T20:44:15.411Z,99177.16
2023-03-03T20:46:59.047Z,99182.31
2023-03-03T20:49:30.999Z,99187.72
2023-03-03T20:52:00.164Z,99183.19
2023-03-03T20:54:40.995Z,99180.38
2023-03-03T20:57:19.589Z,99177.94
2023-03-03T21:00:17.428Z,99183.13
2023-03-03T21:02:53.246Z,99181.47
2023-03-03T21:05:25.543Z,99188.00
2023-03-03T21:07:58.733Z,99178.59
2023-03-03T21:10:29.268Z,99175.09
2023-03-03T21:12:58.802Z,99180.25
2023-03-03T21:15:31.424Z,99179.59
2023-03-03T21:18:02.000Z,99179.84
2023-03-03T21:20:33.760Z,99180.13
2023-03-03T21:23:05.515Z,99186.25
2023-03-03T21:25:40.158Z,99171.63
2023-03-03T21:28:27.305Z,99169.84
2023-03-03T21:31:03.973Z,99175.63
2023-03-03T21:33:45.284Z,99179.91
2023-03-03T21:36:17.520Z,99179.13
2023-03-03T21:38:46.277Z,99178.16
2023-03-03T21:41:14.002Z,99182.56
2023-03-03T21:43:41.425Z,99172.53
2023-03-03T21:46:09.353Z,99182.34
2023-03-03T21:48:39.690Z,99176.38
2023-03-03T21:51:06.944Z,99177.37
2023-03-03T21:53:35.411Z,99181.00
2023-03-03T21:56:03.288Z,99178.19
2023-03-03T21:58:30.454Z,99186.25
2023-03-03T22:00:58.025Z,99188.28
2023-03-03T22:03:25.482Z,99180.41
2023-03-03T22:05:53.643Z,99182.91
2023-03-03T22:08:23.425Z,99186.66
2023-03-03T22:10:53.846Z,99186.72
2023-03-03T22:13:21.066Z,99192.19
2023-03-03T22:15:48.634Z,99183.47
2023-03-03T22:18:18.318Z,99186.78
2023-03-03T22:20:46.157Z,99182.53
2023-03-03T22:23:13.899Z,99192.13
2023-03-03T22:25:41.722Z,99198.75
2023-03-03T22:28:09.138Z,99197.31
2023-03-03T22:30:36.834Z,99192.25
2023-03-03T22:33:04.329Z,99190.47
2023-03-03T22:35:31.654Z,99193.81
2023-03-03T22:37:58.927Z,99192.81
2023-03-03T22:40:26.447Z,99200.69
2023-03-03T22:42:53.665Z,99188.22
2023-03-03T22:45:20.823Z,99191.56
2023-03-03T22:47:48.341Z,99187.88
2023-03-03T22:50:16.884Z,99192.97
2023-03-03T22:52:44.111Z,99192.94
2023-03-03T22:55:11.717Z,99191.88
2023-03-03T22:57:38.902Z,99191.66
2023-03-03T23:00:07.333Z,99194.84
2023-03-03T23:02:34.910Z,99192.94
2023-03-03T23:05:07.789Z,99197.28
2023-03-03T23:07:35.472Z,99187.78
2023-03-03T23:10:02.971Z,99189.66
2023-03-03T23:12:30.142Z,99193.72
2023-03-03T23:14:57.650Z,99185.94
2023-03-03T23:17:25.015Z,99189.66
2023-03-03T23:19:52.250Z,99185.72
2023-03-03T23:22:19.765Z,99182.78
2023-03-03T23:24:46.957Z,99182.53
2023-03-03T23:27:14.236Z,99182.69
2023-03-03T23:29:44.445Z,99188.31
2023-03-03T23:32:11.636Z,99181.66
2023-03-03T23:34:38.816Z,99182.22
2023-03-03T23:37:06.263Z,99188.66
2023-03-03T23:39:33.428Z,99191.47
2023-03-03T23:42:00.602Z,99190.72
2023-03-03T23:44:28.024Z,99177.87
2023-03-03T23:46:55.227Z,99183.94
2023-03-03T23:49:22.451Z,99182.03
2023-03-03T23:51:49.887Z,99174.97
2023-03-03T23:54:17.098Z,99181.66
2023-03-03T23:56:44.250Z,99176.97
2023-03-03T23:59:11.698Z,99169.41
